sensor_id;sensor_type;location;lat;lon;timestamp;pressure;altitude;pressure_sealevel;temperature
60731;BMP280;46580;52.114;11.674;2023-04-15T00:02:17;100189.81;;;7.40
60731;BMP280;46580;52.114;11.674;2023-04-15T00:04:46;100178.56;;;7.30
60731;BMP280;46580;52.114;11.674;2023-04-15T00:07:12;100179.63;;;7.27
60731;BMP280;46580;52.114;11.674;2023-04-15T00:09:37;100179.84;;;7.24
60731;BMP280;46580;52.114;11.674;2023-04-15T00:12:03;100178.03;;;7.14
60731;BMP280;46580;52.114;11.674;2023-04-15T00:14:29;100174.16;;;7.09
60731;BMP280;46580;52.114;11.674;2023-04-15T00:16:55;100169.31;;;7.17
60731;BMP280;46580;52.114;11.674;2023-04-15T00:19:21;100170.25;;;7.16
60731;BMP280;46580;52.114;11.674;2023-04-15T00:21:46;100176.41;;;7.13
60731;BMP280;46580;52.114;11.674;2023-04-15T00:24:13;100171.44;;;7.23
60731;BMP280;46580;52.114;11.674;2023-04-15T00:26:38;100179.78;;;7.37
60731;BMP280;46580;52.114;11.674;2023-04-15T00:29:04;100179.94;;;7.23
60731;BMP280;46580;52.114;11.674;2023-04-15T00:31:30;100179.06;;;7.35
60731;BMP280;46580;52.114;11.674;2023-04-15T00:33:55;100178.84;;;7.38
60731;BMP280;46580;52.114;11.674;2023-04-15T00:36:21;100178.81;;;7.27
60731;BMP280;46580;52.114;11.674;2023-04-15T00:38:47;100176.03;;;7.30
60731;BMP280;46580;52.114;11.674;2023-04-15T00:41:13;100176.84;;;7.30
60731;BMP280;46580;52.114;11.674;2023-04-15T00:43:38;100175.31;;;7.28
60731;BMP280;46580;52.114;11.674;2023-04-15T00:46:04;100172.88;;;7.26
60731;BMP280;46580;52.114;11.674;2023-04-15T00:48:30;100170.47;;;7.36
60731;BMP280;46580;52.114;11.674;2023-04-15T00:50:56;100165.84;;;7.41
60731;BMP280;46580;52.114;11.674;2023-04-15T00:53:22;100168.66;;;7.48
60731;BMP280;46580;52.114;11.674;2023-04-15T00:55:47;100154.78;;;7.40
60731;BMP280;46580;52.114;11.674;2023-04-15T00:58:13;100156.16;;;7.33
60731;BMP280;46580;52.114;11.674;2023-04-15T01:00:38;100154.78;;;7.40
60731;BMP280;46580;52.114;11.674;2023-04-15T01:03:05;100147.22;;;7.39
60731;BMP280;46580;52.114;11.674;2023-04-15T01:05:30;100150.34;;;7.42
60731;BMP280;46580;52.114;11.674;2023-04-15T01:07:56;100140.84;;;7.44
60731;BMP280;46580;52.114;11.674;2023-04-15T01:10:22;100143.31;;;7.56
60731;BMP280;46580;52.114;11.674;2023-04-15T01:12:47;100140.00;;;7.43
60731;BMP280;46580;52.114;11.674;2023-04-15T01:15:13;100136.31;;;7.47
60731;BMP280;46580;52.114;11.674;2023-04-15T01:17:38;100133.50;;;7.40
60731;BMP280;46580;52.114;11.674;2023-04-15T01:20:05;100135.78;;;7.32
60731;BMP280;46580;52.114;11.674;2023-04-15T01:22:32;100133.25;;;7.42
60731;BMP280;46580;52.114;11.674;2023-04-15T01:25:10;100130.13;;;7.39
60731;BMP280;46580;52.114;11.674;2023-04-15T01:27:38;100132.56;;;7.41
60731;BMP280;46580;52.114;11.674;2023-04-15T01:30:06;100127.00;;;7.46
60731;BMP280;46580;52.114;11.674;2023-04-15T01:32:32;100132.59;;;7.51
60731;BMP280;46580;52.114;11.674;2023-04-15T01:34:57;100137.94;;;7.48
60731;BMP280;46580;52.114;11.674;2023-04-15T01:37:23;100129.03;;;7.31
60731;BMP280;46580;52.114;11.674;2023-04-15T01:39:48;100134.25;;;7.29
60731;BMP280;46580;52.114;11.674;2023-04-15T01:42:14;100138.50;;;7.41
60731;BMP280;46580;52.114;11.674;2023-04-15T01:44:39;100133.50;;;7.40
60731;BMP280;46580;52.114;11.674;2023-04-15T01:47:04;100121.53;;;7.51
60731;BMP280;46580;52.114;11.674;2023-04-15T01:49:31;100118.44;;;7.35
60731;BMP280;46580;52.114;11.674;2023-04-15T01:51:56;100119.97;;;7.38
60731;BMP280;46580;52.114;11.674;2023-04-15T01:54:22;100123.53;;;7.47
60731;BMP280;46580;52.114;11.674;2023-04-15T01:56:47;100116.25;;;7.42
60731;BMP280;46580;52.114;11.674;2023-04-15T01:59:13;100115.34;;;7.42
60731;BMP280;46580;52.114;11.674;2023-04-15T02:01:38;100113.47;;;7.34
60731;BMP280;46580;52.114;11.674;2023-04-15T02:04:05;100117.06;;;7.42
60731;BMP280;46580;52.114;11.674;2023-04-15T02:06:30;100104.63;;;7.38
60731;BMP280;46580;52.114;11.674;2023-04-15T02:08:55;100106.81;;;7.31
60731;BMP280;46580;52.114;11.674;2023-04-15T02:11:21;100110.28;;;7.30
60731;BMP280;46580;52.114;11.674;2023-04-15T02:13:47;100110.41;;;7.29
60731;BMP280;46580;52.114;11.674;2023-04-15T02:16:16;100104.81;;;7.35
60731;BMP280;46580;52.114;11.674;2023-04-15T02:18:45;100099.72;;;7.35
60731;BMP280;46580;52.114;11.674;2023-04-15T02:21:11;100101.59;;;7.33
60731;BMP280;46580;52.114;11.674;2023-04-15T02:23:37;100102.03;;;7.27
60731;BMP280;46580;52.114;11.674;2023-04-15T02:26:02;100094.09;;;7.19
60731;BMP280;46580;52.114;11.674;2023-04-15T02:28:28;100089.66;;;7.21
60731;BMP280;46580;52.114;11.674;2023-04-15T02:30:53;100091.28;;;7.22
60731;BMP280;46580;52.114;11.674;2023-04-15T02:33:21;100088.88;;;7.21
60731;BMP280;46580;52.114;11.674;2023-04-15T02:35:46;100089.78;;;7.20
60731;BMP280;46580;52.114;11.674;2023-04-15T02:38:11;100094.09;;;7.19
60731;BMP280;46580;52.114;11.674;2023-04-15T02:40:38;100092.34;;;7.20
60731;BMP280;46580;52.114;11.674;2023-04-15T02:43:03;100089.44;;;7.24
60731;BMP280;46580;52.114;11.674;2023-04-15T02:45:31;100088.53;;;7.25
60731;BMP280;46580;52.114;11.674;2023-04-15T02:47:56;100094.66;;;7.23
60731;BMP280;46580;52.114;11.674;2023-04-15T02:50:22;100094.66;;;7.23
60731;BMP280;46580;52.114;11.674;2023-04-15T02:52:48;100087.59;;;7.26
60731;BMP280;46580;52.114;11.674;2023-04-15T02:55:14;100082.75;;;7.34
60731;BMP280;46580;52.114;11.674;2023-04-15T02:57:39;100089.25;;;7.27
60731;BMP280;46580;52.114;11.674;2023-04-15T03:00:06;100086.69;;;7.27
60731;BMP280;46580;52.114;11.674;2023-04-15T03:02:36;100090.97;;;7.26
60731;BMP280;46580;52.114;11.674;2023-04-15T03:05:01;100083.66;;;7.33
60731;BMP280;46580;52.114;11.674;2023-04-15T03:07:27;100076.47;;;7.48
60731;BMP280;46580;52.114;11.674;2023-04-15T03:09:52;100081.47;;;7.39
60731;BMP280;46580;52.114;11.674;2023-04-15T03:12:19;100096.22;;;7.36
60731;BMP280;46580;52.114;11.674;2023-04-15T03:14:44;100085.16;;;7.35
60731;BMP280;46580;52.114;11.674;2023-04-15T03:17:10;100083.84;;;7.53
60731;BMP280;46580;52.114;11.674;2023-04-15T03:19:35;100082.88;;;7.43
60731;BMP280;46580;52.114;11.674;2023-04-15T03:22:00;100087.44;;;7.50
60731;BMP280;46580;52.114;11.674;2023-04-15T03:24:26;100090.66;;;7.42
60731;BMP280;46580;52.114;11.674;2023-04-15T03:26:53;100078.81;;;7.41
60731;BMP280;46580;52.114;11.674;2023-04-15T03:29:19;100079.09;;;7.59
60731;BMP280;46580;52.114;11.674;2023-04-15T03:31:44;100076.47;;;7.48
60731;BMP280;46580;52.114;11.674;2023-04-15T03:34:10;100079.47;;;7.65
60731;BMP280;46580;52.114;11.674;2023-04-15T03:36:35;100075.16;;;7.66
60731;BMP280;46580;52.114;11.674;2023-04-15T03:39:01;100077.25;;;7.82
60731;BMP280;46580;52.114;11.674;2023-04-15T03:41:26;100069.78;;;7.69
60731;BMP280;46580;52.114;11.674;2023-04-15T03:43:52;100075.16;;;7.77
60731;BMP280;46580;52.114;11.674;2023-04-15T03:46:18;100075.66;;;7.81
60731;BMP280;46580;52.114;11.674;2023-04-15T03:48:43;100071.88;;;7.64
60731;BMP280;46580;52.114;11.674;2023-04-15T03:51:09;100081.22;;;7.76
60731;BMP280;46580;52.114;11.674;2023-04-15T03:53:34;100077.47;;;7.69
60731;BMP280;46580;52.114;11.674;2023-04-15T03:55:59;100073.31;;;7.89
60731;BMP280;46580;52.114;11.674;2023-04-15T03:58:25;100077.50;;;7.79
60731;BMP280;46580;52.114;11.674;2023-04-15T04:00:50;100074.91;;;7.69
60731;BMP280;46580;52.114;11.674;2023-04-15T04:03:15;100072.28;;;7.92
60731;BMP280;46580;52.114;11.674;2023-04-15T04:05:41;100078.69;;;7.86
60731;BMP280;46580;52.114;11.674;2023-04-15T04:08:08;100073.91;;;7.93
60731;BMP280;46580;52.114;11.674;2023-04-15T04:10:33;100065.75;;;7.88
60731;BMP280;46580;52.114;11.674;2023-04-15T04:12:59;100062.13;;;7.79
60731;BMP280;46580;52.114;11.674;2023-04-15T04:15:24;100070.28;;;7.84
60731;BMP280;46580;52.114;11.674;2023-04-15T04:17:49;100079.13;;;7.91
60731;BMP280;46580;52.114;11.674;2023-04-15T04:20:15;100068.19;;;7.89
60731;BMP280;46580;52.114;11.674;2023-04-15T04:22:40;100076.13;;;7.86
60731;BMP280;46580;52.114;11.674;2023-04-15T04:25:07;100065.50;;;7.91
60731;BMP280;46580;52.114;11.674;2023-04-15T04:27:33;100065.84;;;7.76
60731;BMP280;46580;52.114;11.674;2023-04-15T04:29:58;100069.00;;;7.90
60731;BMP280;46580;52.114;11.674;2023-04-15T04:32:24;100074.47;;;7.96
60731;BMP280;46580;52.114;11.674;2023-04-15T04:34:49;100070.81;;;8.00
60731;BMP280;46580;52.114;11.674;2023-04-15T04:37:15;100064.22;;;7.96
60731;BMP280;46580;52.114;11.674;2023-04-15T04:39:40;100071.44;;;7.91
60731;BMP280;46580;52.114;11.674;2023-04-15T04:42:05;100067.97;;;7.81
60731;BMP280;46580;52.114;11.674;2023-04-15T04:44:31;100069.06;;;8.00
60731;BMP280;46580;52.114;11.674;2023-04-15T04:46:56;100064.88;;;7.99
60731;BMP280;46580;52.114;11.674;2023-04-15T04:49:21;100077.75;;;7.98
60731;BMP280;46580;52.114;11.674;2023-04-15T04:51:47;100086.13;;;7.89
60731;BMP280;46580;52.114;11.674;2023-04-15T04:54:13;100086.13;;;7.89
60731;BMP280;46580;52.114;11.674;2023-04-15T04:56:38;100088.63;;;8.01
60731;BMP280;46580;52.114;11.674;2023-04-15T04:59:04;100082.16;;;7.85
60731;BMP280;46580;52.114;11.674;2023-04-15T05:01:29;100082.16;;;7.85
60731;BMP280;46580;52.114;11.674;2023-04-15T05:03:54;100078.94;;;8.05
60731;BMP280;46580;52.114;11.674;2023-04-15T05:06:20;100084.09;;;8.05
60731;BMP280;46580;52.114;11.674;2023-04-15T05:08:46;100084.72;;;7.96
60731;BMP280;46580;52.114;11.674;2023-04-15T05:11:11;100087.75;;;7.90
60731;BMP280;46580;52.114;11.674;2023-04-15T05:13:37;100097.53;;;7.96
60731;BMP280;46580;52.114;11.674;2023-04-15T05:16:04;100090.31;;;7.90
60731;BMP280;46580;52.114;11.674;2023-04-15T05:18:30;100091.72;;;7.94
60731;BMP280;46580;52.114;11.674;2023-04-15T05:20:55;100095.59;;;7.99
60731;BMP280;46580;52.114;11.674;2023-04-15T05:23:21;100083.97;;;8.06
60731;BMP280;46580;52.114;11.674;2023-04-15T05:25:46;100091.31;;;8.00
60731;BMP280;46580;52.114;11.674;2023-04-15T05:28:12;100092.88;;;7.90
60731;BMP280;46580;52.114;11.674;2023-04-15T05:30:37;100092.69;;;8.04
60731;BMP280;46580;52.114;11.674;2023-04-15T05:33:03;100092.47;;;8.07
60731;BMP280;46580;52.114;11.674;2023-04-15T05:35:29;100099.09;;;8.09
60731;BMP280;46580;52.114;11.674;2023-04-15T05:37:54;100091.91;;;8.14
60731;BMP280;46580;52.114;11.674;2023-04-15T05:40:20;100109.13;;;8.01
60731;BMP280;46580;52.114;11.674;2023-04-15T05:42:45;100105.50;;;8.04
60731;BMP280;46580;52.114;11.674;2023-04-15T05:45:10;100108.31;;;8.12
60731;BMP280;46580;52.114;11.674;2023-04-15T05:47:36;100097.09;;;8.02
60731;BMP280;46580;52.114;11.674;2023-04-15T05:50:03;100096.78;;;8.06
60731;BMP280;46580;52.114;11.674;2023-04-15T05:52:29;100103.53;;;8.07
60731;BMP280;46580;52.114;11.674;2023-04-15T05:54:55;100100.97;;;8.07
60731;BMP280;46580;52.114;11.674;2023-04-15T05:57:20;100097.53;;;7.96
60731;BMP280;46580;52.114;11.674;2023-04-15T05:59:45;100091.75;;;8.16
60731;BMP280;46580;52.114;11.674;2023-04-15T06:02:11;100104.00;;;8.01
60731;BMP280;46580;52.114;11.674;2023-04-15T06:04:37;100107.84;;;8.07
60731;BMP280;46580;52.114;11.674;2023-04-15T06:07:03;100107.28;;;8.14
60731;BMP280;46580;52.114;11.674;2023-04-15T06:09:28;100094.34;;;8.26
60731;BMP280;46580;52.114;11.674;2023-04-15T06:11:54;100100.19;;;8.28
60731;BMP280;46580;52.114;11.674;2023-04-15T06:14:21;100105.16;;;8.19
60731;BMP280;46580;52.114;11.674;2023-04-15T06:16:46;100101.56;;;8.21
60731;BMP280;46580;52.114;11.674;2023-04-15T06:19:11;100110.41;;;8.17
60731;BMP280;46580;52.114;11.674;2023-04-15T06:21:37;100097.63;;;8.28
60731;BMP280;46580;52.114;11.674;2023-04-15T06:24:02;100106.09;;;8.18
60731;BMP280;46580;52.114;11.674;2023-04-15T06:26:28;100099.59;;;8.25
60731;BMP280;46580;52.114;11.674;2023-04-15T06:28:53;100105.28;;;8.17
60731;BMP280;46580;52.114;11.674;2023-04-15T06:31:18;100105.50;;;8.36
60731;BMP280;46580;52.114;11.674;2023-04-15T06:33:44;100101.56;;;8.21
60731;BMP280;46580;52.114;11.674;2023-04-15T06:36:09;100101.66;;;8.31
60731;BMP280;46580;52.114;11.674;2023-04-15T06:38:35;100100.97;;;8.39
60731;BMP280;46580;52.114;11.674;2023-04-15T06:41:00;100104.56;;;8.37
60731;BMP280;46580;52.114;11.674;2023-04-15T06:43:27;100107.38;;;8.45
60731;BMP280;46580;52.114;11.674;2023-04-15T06:45:52;100108.31;;;8.44
60731;BMP280;46580;52.114;11.674;2023-04-15T06:48:18;100109.94;;;8.45
60731;BMP280;46580;52.114;11.674;2023-04-15T06:50:43;100105.63;;;8.45
60731;BMP280;46580;52.114;11.674;2023-04-15T06:53:08;100120.09;;;8.46
60731;BMP280;46580;52.114;11.674;2023-04-15T06:55:34;100115.44;;;8.40
60731;BMP280;46580;52.114;11.674;2023-04-15T06:57:59;100124.88;;;8.61
60731;BMP280;46580;52.114;11.674;2023-04-15T07:00:24;100124.63;;;8.54
60731;BMP280;46580;52.114;11.674;2023-04-15T07:02:50;100126.59;;;8.50
60731;BMP280;46580;52.114;11.674;2023-04-15T07:05:15;100123.34;;;8.59
60731;BMP280;46580;52.114;11.674;2023-04-15T07:07:41;100124.53;;;8.55
60731;BMP280;46580;52.114;11.674;2023-04-15T07:10:07;100128.94;;;8.53
60731;BMP280;46580;52.114;11.674;2023-04-15T07:12:32;100126.75;;;8.49
60731;BMP280;46580;52.114;11.674;2023-04-15T07:14:59;100130.00;;;8.61
60731;BMP280;46580;52.114;11.674;2023-04-15T07:17:24;100129.84;;;8.63
60731;BMP280;46580;52.114;11.674;2023-04-15T07:19:50;100126.69;;;8.70
60731;BMP280;46580;52.114;11.674;2023-04-15T07:22:15;100125.31;;;8.66
60731;BMP280;46580;52.114;11.674;2023-04-15T07:24:40;100122.88;;;8.75
60731;BMP280;46580;52.114;11.674;2023-04-15T07:27:06;100119.69;;;8.83
60731;BMP280;46580;52.114;11.674;2023-04-15T07:29:32;100117.25;;;8.81
60731;BMP280;46580;52.114;11.674;2023-04-15T07:31:58;100115.84;;;8.77
60731;BMP280;46580;52.114;11.674;2023-04-15T07:34:23;100127.25;;;8.95
60731;BMP280;46580;52.114;11.674;2023-04-15T07:36:48;100126.09;;;8.88
60731;BMP280;46580;52.114;11.674;2023-04-15T07:39:16;100134.13;;;8.84
60731;BMP280;46580;52.114;11.674;2023-04-15T07:41:41;100137.41;;;8.86
60731;BMP280;46580;52.114;11.674;2023-04-15T07:44:07;100136.44;;;8.97
60731;BMP280;46580;52.114;11.674;2023-04-15T07:46:32;100135.41;;;9.00
60731;BMP280;46580;52.114;11.674;2023-04-15T07:48:57;100126.19;;;8.97
60731;BMP280;46580;52.114;11.674;2023-04-15T07:51:23;100127.34;;;9.04
60731;BMP280;46580;52.114;11.674;2023-04-15T07:53:49;100135.50;;;9.09
60731;BMP280;46580;52.114;11.674;2023-04-15T07:56:14;100133.63;;;9.11
60731;BMP280;46580;52.114;11.674;2023-04-15T07:58:40;100141.31;;;9.11
60731;BMP280;46580;52.114;11.674;2023-04-15T08:01:06;100143.31;;;9.08
60731;BMP280;46580;52.114;11.674;2023-04-15T08:03:32;100139.25;;;9.05
60731;BMP280;46580;52.114;11.674;2023-04-15T08:05:57;100139.78;;;9.19
60731;BMP280;46580;52.114;11.674;2023-04-15T08:08:23;100133.13;;;9.17
60731;BMP280;46580;52.114;11.674;2023-04-15T08:10:49;100145.53;;;9.12
60731;BMP280;46580;52.114;11.674;2023-04-15T08:13:14;100151.59;;;9.11
60731;BMP280;46580;52.114;11.674;2023-04-15T08:15:40;100158.56;;;9.20
60731;BMP280;46580;52.114;11.674;2023-04-15T08:18:06;100154.78;;;9.34
60731;BMP280;46580;52.114;11.674;2023-04-15T08:20:31;100159.88;;;9.45
60731;BMP280;46580;52.114;11.674;2023-04-15T08:22:57;100160.88;;;9.33
60731;BMP280;46580;52.114;11.674;2023-04-15T08:25:22;100162.72;;;9.31
60731;BMP280;46580;52.114;11.674;2023-04-15T08:27:47;100162.72;;;9.31
60731;BMP280;46580;52.114;11.674;2023-04-15T08:30:13;100168.78;;;9.41
60731;BMP280;46580;52.114;11.674;2023-04-15T08:32:41;100165.41;;;9.41
60731;BMP280;46580;52.114;11.674;2023-04-15T08:35:07;100162.00;;;9.40
60731;BMP280;46580;52.114;11.674;2023-04-15T08:37:33;100156.69;;;9.52
60731;BMP280;46580;52.114;11.674;2023-04-15T08:39:58;100163.56;;;9.63
60731;BMP280;46580;52.114;11.674;2023-04-15T08:42:30;100163.72;;;9.70
60731;BMP280;46580;52.114;11.674;2023-04-15T08:44:58;100163.78;;;9.60
60731;BMP280;46580;52.114;11.674;2023-04-15T08:47:25;100165.44;;;9.61
60731;BMP280;46580;52.114;11.674;2023-04-15T08:49:54;100176.13;;;9.76
60731;BMP280;46580;52.114;11.674;2023-04-15T08:52:20;100169.97;;;9.68
60731;BMP280;46580;52.114;11.674;2023-04-15T08:54:46;100180.28;;;9.88
60731;BMP280;46580;52.114;11.674;2023-04-15T08:57:12;100180.28;;;9.88
60731;BMP280;46580;52.114;11.674;2023-04-15T08:59:38;100179.84;;;9.83
60731;BMP280;46580;52.114;11.674;2023-04-15T09:02:04;100180.28;;;9.88
60731;BMP280;46580;52.114;11.674;2023-04-15T09:04:30;100183.34;;;9.82
60731;BMP280;46580;52.114;11.674;2023-04-15T09:06:55;100179.16;;;9.81
60731;BMP280;46580;52.114;11.674;2023-04-15T09:09:21;100182.16;;;9.86
60731;BMP280;46580;52.114;11.674;2023-04-15T09:11:46;100191.19;;;10.01
60731;BMP280;46580;52.114;11.674;2023-04-15T09:14:14;100190.97;;;10.03
60731;BMP280;46580;52.114;11.674;2023-04-15T09:17:09;100203.66;;;10.05
60731;BMP280;46580;52.114;11.674;2023-04-15T09:19:35;100199.09;;;10.08
60731;BMP280;46580;52.114;11.674;2023-04-15T09:22:01;100197.97;;;10.02
60731;BMP280;46580;52.114;11.674;2023-04-15T09:24:35;100207.50;;;10.10
60731;BMP280;46580;52.114;11.674;2023-04-15T09:27:01;100207.50;;;10.10
60731;BMP280;46580;52.114;11.674;2023-04-15T09:29:27;100206.50;;;10.22
60731;BMP280;46580;52.114;11.674;2023-04-15T09:31:53;100207.44;;;10.21
60731;BMP280;46580;52.114;11.674;2023-04-15T09:34:18;100210.44;;;10.26
60731;BMP280;46580;52.114;11.674;2023-04-15T09:39:13;100212.06;;;10.27
60731;BMP280;46580;52.114;11.674;2023-04-15T09:41:39;100215.53;;;10.37
60731;BMP280;46580;52.114;11.674;2023-04-15T09:44:05;100214.19;;;10.42
60731;BMP280;46580;52.114;11.674;2023-04-15T09:46:44;100218.53;;;10.41
60731;BMP280;46580;52.114;11.674;2023-04-15T09:49:10;100216.72;;;10.33
60731;BMP280;46580;52.114;11.674;2023-04-15T09:51:36;100219.34;;;10.22
60731;BMP280;46580;52.114;11.674;2023-04-15T09:54:01;100223.75;;;10.51
60731;BMP280;46580;52.114;11.674;2023-04-15T09:56:34;100219.38;;;10.51
60731;BMP280;46580;52.114;11.674;2023-04-15T09:59:02;100233.28;;;10.40
60731;BMP280;46580;52.114;11.674;2023-04-15T10:01:27;100231.50;;;10.40
60731;BMP280;46580;52.114;11.674;2023-04-15T10:03:56;100233.97;;;10.41
60731;BMP280;46580;52.114;11.674;2023-04-15T10:06:22;100227.31;;;10.39
60731;BMP280;46580;52.114;11.674;2023-04-15T10:08:48;100232.41;;;10.50
60731;BMP280;46580;52.114;11.674;2023-04-15T10:11:13;100235.88;;;10.69
60731;BMP280;46580;52.114;11.674;2023-04-15T10:13:39;100236.59;;;10.80
60731;BMP280;46580;52.114;11.674;2023-04-15T10:16:13;100234.44;;;10.76
60731;BMP280;46580;52.114;11.674;2023-04-15T10:18:43;100238.84;;;10.64
60731;BMP280;46580;52.114;11.674;2023-04-15T10:21:09;100236.94;;;10.66
60731;BMP280;46580;52.114;11.674;2023-04-15T10:23:35;100239.72;;;10.54
60731;BMP280;46580;52.114;11.674;2023-04-15T10:26:01;100237.53;;;10.79
60731;BMP280;46580;52.114;11.674;2023-04-15T10:28:28;100240.97;;;10.59
60731;BMP280;46580;52.114;11.674;2023-04-15T10:30:53;100243.31;;;10.72
60731;BMP280;46580;52.114;11.674;2023-04-15T10:33:21;100241.28;;;10.66
60731;BMP280;46580;52.114;11.674;2023-04-15T10:35:48;100243.84;;;10.66
60731;BMP280;46580;52.114;11.674;2023-04-15T10:41:30;100241.75;;;10.80
60731;BMP280;46580;52.114;11.674;2023-04-15T10:46:41;100245.75;;;10.64
60731;BMP280;46580;52.114;11.674;2023-04-15T10:49:08;100247.53;;;10.73
60731;BMP280;46580;52.114;11.674;2023-04-15T10:51:41;100251.34;;;10.98
60731;BMP280;46580;52.114;11.674;2023-04-15T10:54:15;100243.97;;;10.84
60731;BMP280;46580;52.114;11.674;2023-04-15T10:56:41;100246.78;;;10.81
60731;BMP280;46580;52.114;11.674;2023-04-15T10:59:08;100244.25;;;10.91
60731;BMP280;46580;52.114;11.674;2023-04-15T11:01:59;100245.72;;;10.84
60731;BMP280;46580;52.114;11.674;2023-04-15T11:04:50;100252.22;;;10.88
60731;BMP280;46580;52.114;11.674;2023-04-15T11:12:37;100258.00;;;10.80
60731;BMP280;46580;52.114;11.674;2023-04-15T11:17:50;100250.72;;;10.85
60731;BMP280;46580;52.114;11.674;2023-04-15T11:20:16;100261.97;;;10.84
60731;BMP280;46580;52.114;11.674;2023-04-15T11:22:54;100271.06;;;10.88
60731;BMP280;46580;52.114;11.674;2023-04-15T11:25:24;100273.22;;;10.83
60731;BMP280;46580;52.114;11.674;2023-04-15T11:27:50;100265.63;;;10.82
60731;BMP280;46580;52.114;11.674;2023-04-15T11:30:21;100269.19;;;10.90
60731;BMP280;46580;52.114;11.674;2023-04-15T11:32:48;100266.44;;;10.82
60731;BMP280;46580;52.114;11.674;2023-04-15T11:35:15;100268.59;;;10.87
60731;BMP280;46580;52.114;11.674;2023-04-15T11:37:41;100270.19;;;10.78
60731;BMP280;46580;52.114;11.674;2023-04-15T11:40:07;100271.97;;;10.78
60731;BMP280;46580;52.114;11.674;2023-04-15T11:42:33;100277.91;;;10.78
60731;BMP280;46580;52.114;11.674;2023-04-15T11:45:14;100277.47;;;10.74
60731;BMP280;46580;52.114;11.674;2023-04-15T11:47:41;100287.53;;;10.77
60731;BMP280;46580;52.114;11.674;2023-04-15T11:50:17;100285.91;;;10.76
60731;BMP280;46580;52.114;11.674;2023-04-15T11:55:18;100291.72;;;10.97
60731;BMP280;46580;52.114;11.674;2023-04-15T11:57:43;100291.34;;;10.82
60731;BMP280;46580;52.114;11.674;2023-04-15T12:00:09;100288.66;;;10.83
60731;BMP280;46580;52.114;11.674;2023-04-15T12:02:35;100295.69;;;10.81
60731;BMP280;46580;52.114;11.674;2023-04-15T12:05:05;100307.31;;;10.76
60731;BMP280;46580;52.114;11.674;2023-04-15T12:07:30;100292.94;;;10.74
60731;BMP280;46580;52.114;11.674;2023-04-15T12:09:56;100304.84;;;10.75
60731;BMP280;46580;52.114;11.674;2023-04-15T12:12:26;100311.19;;;10.91
60731;BMP280;46580;52.114;11.674;2023-04-15T12:14:52;100307.22;;;10.87
60731;BMP280;46580;52.114;11.674;2023-04-15T12:17:17;100318.34;;;10.87
60731;BMP280;46580;52.114;11.674;2023-04-15T12:19:43;100322.56;;;10.88
60731;BMP280;46580;52.114;11.674;2023-04-15T12:22:11;100328.13;;;10.93
60731;BMP280;46580;52.114;11.674;2023-04-15T12:24:37;100330.38;;;11.07
60731;BMP280;46580;52.114;11.674;2023-04-15T12:27:07;100330.81;;;11.12
60731;BMP280;46580;52.114;11.674;2023-04-15T12:29:34;100329.31;;;11.09
60731;BMP280;46580;52.114;11.674;2023-04-15T12:32:08;100343.19;;;11.17
60731;BMP280;46580;52.114;11.674;2023-04-15T12:34:38;100333.13;;;11.14
60731;BMP280;46580;52.114;11.674;2023-04-15T12:37:06;100344.13;;;11.16
60731;BMP280;46580;52.114;11.674;2023-04-15T12:39:35;100341.88;;;11.03
60731;BMP280;46580;52.114;11.674;2023-04-15T12:42:02;100353.81;;;11.04
60731;BMP280;46580;52.114;11.674;2023-04-15T12:44:28;100353.03;;;11.13
60731;BMP280;46580;52.114;11.674;2023-04-15T12:46:54;100360.94;;;11.20
60731;BMP280;46580;52.114;11.674;2023-04-15T12:49:20;100358.34;;;11.20
60731;BMP280;46580;52.114;11.674;2023-04-15T12:51:54;100357.69;;;11.18
60731;BMP280;46580;52.114;11.674;2023-04-15T12:54:19;100370.69;;;11.17
60731;BMP280;46580;52.114;11.674;2023-04-15T12:56:46;100368.00;;;11.18
60731;BMP280;46580;52.114;11.674;2023-04-15T12:59:13;100374.97;;;11.07
60731;BMP280;46580;52.114;11.674;2023-04-15T13:01:39;100374.16;;;11.07
60731;BMP280;46580;52.114;11.674;2023-04-15T13:04:05;100377.66;;;11.06
60731;BMP280;46580;52.114;11.674;2023-04-15T13:06:30;100375.38;;;11.12
60731;BMP280;46580;52.114;11.674;2023-04-15T13:08:58;100384.44;;;11.07
60731;BMP280;46580;52.114;11.674;2023-04-15T13:11:24;100389.81;;;10.95
60731;BMP280;46580;52.114;11.674;2023-04-15T13:13:50;100393.31;;;10.94
60731;BMP280;46580;52.114;11.674;2023-04-15T13:16:17;100395.03;;;11.04
60731;BMP280;46580;52.114;11.674;2023-04-15T13:18:42;100396.78;;;11.03
60731;BMP280;46580;52.114;11.674;2023-04-15T13:21:07;100400.78;;;10.96
60731;BMP280;46580;52.114;11.674;2023-04-15T13:23:34;100403.91;;;11.00
60731;BMP280;46580;52.114;11.674;2023-04-15T13:26:00;100405.31;;;11.04
60731;BMP280;46580;52.114;11.674;2023-04-15T13:28:25;100405.56;;;11.01
60731;BMP280;46580;52.114;11.674;2023-04-15T13:30:51;100405.56;;;11.01
60731;BMP280;46580;52.114;11.674;2023-04-15T13:33:16;100407.44;;;10.99
60731;BMP280;46580;52.114;11.674;2023-04-15T13:35:42;100417.72;;;10.99
60731;BMP280;46580;52.114;11.674;2023-04-15T13:38:09;100414.81;;;11.03
60731;BMP280;46580;52.114;11.674;2023-04-15T13:40:34;100419.13;;;11.03
60731;BMP280;46580;52.114;11.674;2023-04-15T13:42:59;100425.22;;;11.02
60731;BMP280;46580;52.114;11.674;2023-04-15T13:45:26;100424.97;;;11.05
60731;BMP280;46580;52.114;11.674;2023-04-15T13:47:52;100419.38;;;11.00
60731;BMP280;46580;52.114;11.674;2023-04-15T13:50:17;100426.66;;;10.95
60731;BMP280;46580;52.114;11.674;2023-04-15T13:52:42;100429.44;;;11.03
60731;BMP280;46580;52.114;11.674;2023-04-15T13:55:08;100436.47;;;11.01
60731;BMP280;46580;52.114;11.674;2023-04-15T13:57:34;100430.25;;;11.03
60731;BMP280;46580;52.114;11.674;2023-04-15T13:59:59;100432.06;;;10.92
60731;BMP280;46580;52.114;11.674;2023-04-15T14:02:25;100438.09;;;11.02
60731;BMP280;46580;52.114;11.674;2023-04-15T14:04:50;100431.59;;;10.98
60731;BMP280;46580;52.114;11.674;2023-04-15T14:07:15;100432.06;;;10.92